createdAt,value
2022-09-15T00:01:20.409Z,10.23
2022-09-15T00:03:50.566Z,16.37
2022-09-15T00:06:19.259Z,15.63
2022-09-15T00:08:47.919Z,14.90
2022-09-15T00:11:18.713Z,14.13
2022-09-15T00:13:47.255Z,13.47
2022-09-15T00:16:16.413Z,13.60
2022-09-15T00:18:46.146Z,11.63
2022-09-15T00:21:18.820Z,12.53
2022-09-15T00:23:47.206Z,15.73
2022-09-15T00:26:18.110Z,13.33
2022-09-15T00:28:46.453Z,13.67
2022-09-15T00:31:17.154Z,17.53
2022-09-15T00:33:47.962Z,15.80
2022-09-15T00:36:18.257Z,14.07
2022-09-15T00:38:46.838Z,15.57
2022-09-15T00:41:21.195Z,13.73
2022-09-15T00:43:53.005Z,16.57
2022-09-15T00:46:23.749Z,17.87
2022-09-15T00:48:56.628Z,13.70
2022-09-15T00:51:36.591Z,14.67
2022-09-15T00:54:07.820Z,13.27
2022-09-15T00:56:37.664Z,17.57
2022-09-15T00:59:11.148Z,16.43
2022-09-15T01:01:41.627Z,15.40
2022-09-15T01:04:10.407Z,18.70
2022-09-15T01:06:45.771Z,17.33
2022-09-15T01:09:17.857Z,17.63
2022-09-15T01:11:45.958Z,19.33
2022-09-15T01:14:14.197Z,18.03
2022-09-15T01:16:53.244Z,19.07
2022-09-15T01:20:03.089Z,17.73
2022-09-15T01:22:41.560Z,14.03
2022-09-15T01:25:17.597Z,16.53
2022-09-15T01:28:14.183Z,14.60
2022-09-15T01:30:50.800Z,17.43
2022-09-15T01:33:28.600Z,13.90
2022-09-15T01:36:12.503Z,17.00
2022-09-15T01:38:49.541Z,16.67
2022-09-15T01:41:19.876Z,19.97
2022-09-15T01:43:54.747Z,20.20
2022-09-15T01:46:27.754Z,16.43
2022-09-15T01:48:58.016Z,16.90
2022-09-15T01:51:28.266Z,19.90
2022-09-15T01:53:57.886Z,21.03
2022-09-15T01:56:26.117Z,13.80
2022-09-15T01:58:54.417Z,20.13
2022-09-15T02:01:32.139Z,20.83
2022-09-15T02:04:03.431Z,20.47
2022-09-15T02:06:39.752Z,19.33
2022-09-15T02:09:14.307Z,15.37
2022-09-15T02:11:52.217Z,21.37
2022-09-15T02:14:32.307Z,18.80
2022-09-15T02:17:03.001Z,18.63
2022-09-15T02:19:34.362Z,20.57
2022-09-15T02:22:10.610Z,18.67
2022-09-15T02:24:42.033Z,17.40
2022-09-15T02:27:13.978Z,18.70
2022-09-15T02:29:44.683Z,21.33
2022-09-15T02:32:16.553Z,21.27
2022-09-15T02:34:47.954Z,19.23
2022-09-15T02:37:16.590Z,21.10
2022-09-15T02:39:49.422Z,21.43
2022-09-15T02:42:25.284Z,18.60
2022-09-15T02:44:53.639Z,19.17
2022-09-15T02:47:23.629Z,17.43
2022-09-15T02:49:52.028Z,16.43
2022-09-15T02:52:20.154Z,17.57
2022-09-15T02:54:48.371Z,24.07
2022-09-15T02:57:16.500Z,17.03
2022-09-15T03:00:02.178Z,20.53
2022-09-15T03:02:32.623Z,18.90
2022-09-15T03:05:00.753Z,20.90
2022-09-15T03:07:30.143Z,24.47
2022-09-15T03:09:58.322Z,20.03
2022-09-15T03:12:26.959Z,20.10
2022-09-15T03:14:55.018Z,22.67
2022-09-15T03:17:23.130Z,24.70
2022-09-15T03:19:53.162Z,21.43
2022-09-15T03:22:21.463Z,22.00
2022-09-15T03:24:49.615Z,22.17
2022-09-15T03:27:17.752Z,23.70
2022-09-15T03:29:45.941Z,24.03
2022-09-15T03:32:14.084Z,24.00
2022-09-15T03:34:42.307Z,27.53
2022-09-15T03:37:11.788Z,27.17
2022-09-15T03:39:40.002Z,29.60
2022-09-15T03:42:08.222Z,25.50
2022-09-15T03:44:36.535Z,25.27
2022-09-15T03:47:05.286Z,24.23
2022-09-15T03:49:33.492Z,23.07
2022-09-15T03:52:01.815Z,23.47
2022-09-15T03:54:31.470Z,23.87
2022-09-15T03:56:59.624Z,24.73
2022-09-15T03:59:27.759Z,21.57
2022-09-15T04:01:56.064Z,22.73
2022-09-15T04:04:24.258Z,22.57
2022-09-15T04:06:53.203Z,23.83
2022-09-15T04:09:21.512Z,22.80
2022-09-15T04:11:50.993Z,22.27
2022-09-15T04:14:19.135Z,20.63
2022-09-15T04:16:47.419Z,16.60
2022-09-15T04:19:15.712Z,26.47
2022-09-15T04:21:45.480Z,20.57
2022-09-15T04:24:13.612Z,22.13
2022-09-15T04:26:41.879Z,21.90
2022-09-15T04:29:15.798Z,21.30
2022-09-15T04:31:44.096Z,21.23
2022-09-15T04:34:12.368Z,19.00
2022-09-15T04:36:40.492Z,18.07
2022-09-15T04:39:08.704Z,19.97
2022-09-15T04:41:36.824Z,22.37
2022-09-15T04:44:05.308Z,19.83
2022-09-15T04:46:35.010Z,21.27
2022-09-15T04:49:03.214Z,21.63
2022-09-15T04:51:31.386Z,21.20
2022-09-15T04:53:59.587Z,20.23
2022-09-15T04:56:28.470Z,17.27
2022-09-15T04:59:03.436Z,22.03
2022-09-15T05:01:36.125Z,24.20
2022-09-15T05:04:05.939Z,20.37
2022-09-15T05:06:35.060Z,20.00
2022-09-15T05:09:09.772Z,20.97
2022-09-15T05:11:38.593Z,24.07
2022-09-15T05:14:08.017Z,21.57
2022-09-15T05:16:37.970Z,19.47
2022-09-15T05:19:06.147Z,20.00
2022-09-15T05:21:35.099Z,22.40
2022-09-15T05:24:03.641Z,21.17
2022-09-15T05:26:31.957Z,13.93
2022-09-15T05:29:00.312Z,17.50
2022-09-15T05:31:30.648Z,20.30
2022-09-15T05:34:02.400Z,20.90
2022-09-15T05:36:30.597Z,22.07
2022-09-15T05:38:59.250Z,19.07
2022-09-15T05:41:29.211Z,17.87
2022-09-15T05:43:58.835Z,15.33
2022-09-15T05:46:27.917Z,15.47
2022-09-15T05:48:58.245Z,17.17
2022-09-15T05:51:28.079Z,19.03
2022-09-15T05:53:56.275Z,17.73
2022-09-15T05:56:24.453Z,16.07
2022-09-15T05:58:53.084Z,13.07
2022-09-15T06:01:23.534Z,16.47
2022-09-15T06:03:52.261Z,12.70
2022-09-15T06:06:21.898Z,18.53
2022-09-15T06:08:58.079Z,17.17
2022-09-15T06:11:29.004Z,14.63
2022-09-15T06:13:57.272Z,14.90
2022-09-15T06:16:26.679Z,14.07
2022-09-15T06:18:55.180Z,15.40
2022-09-15T06:21:25.183Z,11.97
2022-09-15T06:23:59.180Z,13.30
2022-09-15T06:26:28.765Z,16.07
2022-09-15T06:28:58.858Z,10.23
2022-09-15T06:31:28.677Z,13.43
2022-09-15T06:33:57.900Z,13.23
2022-09-15T06:36:28.518Z,12.07
2022-09-15T06:38:58.754Z,12.43
2022-09-15T06:41:38.213Z,14.73
2022-09-15T06:44:19.233Z,9.83
2022-09-15T06:46:47.471Z,10.90
2022-09-15T06:49:15.984Z,13.50
2022-09-15T06:51:44.098Z,12.63
2022-09-15T06:54:14.621Z,10.33
2022-09-15T06:56:42.763Z,9.57
2022-09-15T06:59:12.698Z,14.37
2022-09-15T07:01:41.005Z,8.47
2022-09-15T07:04:10.037Z,9.50
2022-09-15T07:06:39.789Z,11.17
2022-09-15T07:09:08.168Z,6.83
2022-09-15T07:11:37.786Z,10.37
2022-09-15T07:14:06.093Z,10.33
2022-09-15T07:16:34.377Z,12.10
2022-09-15T07:19:03.720Z,10.57
2022-09-15T07:21:31.926Z,8.57
2022-09-15T07:24:03.820Z,7.83
2022-09-15T07:26:35.265Z,9.40
2022-09-15T07:29:07.119Z,10.37
2022-09-15T07:31:37.653Z,8.93
2022-09-15T07:34:06.281Z,12.17
2022-09-15T07:36:34.574Z,6.90
2022-09-15T07:39:05.021Z,9.90
2022-09-15T07:41:33.501Z,9.70
2022-09-15T07:44:02.350Z,7.77
2022-09-15T07:46:33.832Z,12.17
2022-09-15T07:49:03.228Z,8.43
2022-09-15T07:51:32.071Z,8.33
2022-09-15T07:54:00.444Z,9.53
2022-09-15T07:56:28.742Z,7.53
2022-09-15T07:58:57.687Z,10.60
2022-09-15T08:01:25.916Z,7.90
2022-09-15T08:03:55.400Z,6.50
2022-09-15T08:06:25.285Z,6.17
2022-09-15T08:08:59.278Z,7.60
2022-09-15T08:11:28.963Z,4.70
2022-09-15T08:13:57.163Z,6.53
2022-09-15T08:16:25.945Z,7.93
2022-09-15T08:18:56.129Z,4.60
2022-09-15T08:21:25.820Z,4.10
2022-09-15T08:23:56.011Z,8.47
2022-09-15T08:26:24.707Z,5.07
2022-09-15T08:28:53.643Z,5.90
2022-09-15T08:31:24.174Z,6.20
2022-09-15T08:33:56.174Z,3.90
2022-09-15T08:36:27.711Z,4.37
2022-09-15T08:38:56.181Z,4.70
2022-09-15T08:41:28.577Z,5.43
2022-09-15T08:44:02.200Z,4.40
2022-09-15T08:46:35.941Z,5.80
2022-09-15T08:49:11.622Z,6.60
2022-09-15T08:51:44.457Z,7.20
2022-09-15T08:54:17.594Z,6.67
2022-09-15T08:56:46.592Z,6.13
2022-09-15T08:59:16.855Z,5.37
2022-09-15T09:02:06.096Z,4.70
2022-09-15T09:05:11.773Z,6.50
2022-09-15T09:08:10.096Z,3.90
2022-09-15T09:10:49.320Z,3.93
2022-09-15T09:13:35.199Z,5.33
2022-09-15T09:16:16.963Z,3.30
2022-09-15T09:19:03.804Z,6.60
2022-09-15T09:21:36.371Z,7.57
2022-09-15T09:24:07.422Z,5.30
2022-09-15T09:26:37.894Z,5.87
2022-09-15T09:29:12.080Z,2.23
2022-09-15T09:31:42.687Z,5.47
2022-09-15T09:34:21.663Z,3.93
2022-09-15T09:36:56.295Z,4.23
2022-09-15T09:39:24.577Z,2.43
2022-09-15T09:41:52.846Z,6.07
2022-09-15T09:44:31.766Z,3.70
2022-09-15T09:47:00.467Z,5.40
2022-09-15T09:49:34.292Z,4.37
2022-09-15T09:52:04.853Z,5.43
2022-09-15T09:54:34.305Z,3.13
2022-09-15T09:57:28.084Z,5.47
2022-09-15T09:59:56.582Z,5.03
2022-09-15T10:02:25.811Z,5.13
2022-09-15T10:04:55.675Z,3.67
2022-09-15T10:07:27.342Z,5.03
2022-09-15T10:09:58.189Z,5.30
2022-09-15T10:12:32.382Z,4.67
2022-09-15T10:15:03.559Z,5.27
2022-09-15T10:17:43.664Z,4.90
2022-09-15T10:20:25.669Z,4.80
2022-09-15T10:23:03.836Z,6.80
2022-09-15T10:25:58.653Z,2.83
2022-09-15T10:28:27.466Z,4.77
2022-09-15T10:31:04.985Z,4.13
2022-09-15T10:33:35.071Z,4.67
2022-09-15T10:36:08.899Z,5.37
2022-09-15T10:38:44.871Z,3.53
2022-09-15T10:41:24.263Z,6.00
2022-09-15T10:44:09.072Z,5.40
2022-09-15T10:46:47.099Z,4.70
2022-09-15T10:49:32.278Z,5.13
2022-09-15T10:52:11.948Z,9.23
2022-09-15T10:55:01.309Z,4.10
2022-09-15T10:57:44.354Z,8.60
2022-09-15T11:00:14.289Z,5.53
2022-09-15T11:03:18.901Z,4.40
2022-09-15T11:06:00.504Z,5.07
2022-09-15T11:08:57.231Z,5.90
2022-09-15T11:11:33.025Z,5.40
2022-09-15T11:14:12.872Z,3.47
2022-09-15T11:16:54.313Z,6.33
2022-09-15T11:19:35.397Z,4.10
2022-09-15T11:22:08.676Z,4.80
2022-09-15T11:24:43.530Z,4.67
2022-09-15T11:27:21.219Z,6.53
2022-09-15T11:30:03.596Z,5.07
2022-09-15T11:32:39.422Z,3.23
2022-09-15T11:35:33.550Z,4.53
2022-09-15T11:38:14.883Z,5.60
2022-09-15T11:40:48.918Z,5.43
2022-09-15T11:43:23.264Z,8.30
2022-09-15T11:45:55.740Z,5.20
2022-09-15T11:48:31.123Z,3.87
2022-09-15T11:51:03.995Z,5.07
2022-09-15T11:53:38.339Z,5.37
2022-09-15T11:56:19.827Z,7.33
2022-09-15T11:59:03.704Z,4.75
2022-09-15T12:01:38.385Z,6.22
2022-09-15T12:04:12.067Z,5.93
2022-09-15T12:06:46.103Z,6.55
2022-09-15T12:09:17.005Z,3.97
2022-09-15T12:11:48.559Z,6.27
2022-09-15T12:14:33.333Z,5.83
2022-09-15T12:17:02.599Z,4.53
2022-09-15T12:19:52.949Z,5.10
2022-09-15T12:22:25.226Z,5.53
2022-09-15T12:25:01.150Z,4.23
2022-09-15T12:27:30.269Z,7.97
2022-09-15T12:30:01.005Z,4.07
2022-09-15T12:32:30.242Z,4.87
2022-09-15T12:35:11.387Z,7.40
2022-09-15T12:37:44.422Z,3.27
2022-09-15T12:40:36.121Z,6.20
2022-09-15T12:43:17.086Z,4.00
2022-09-15T12:45:57.876Z,3.93
2022-09-15T12:48:29.118Z,6.30
2022-09-15T12:51:00.339Z,7.03
2022-09-15T12:53:31.827Z,5.53
2022-09-15T12:56:03.489Z,4.00
2022-09-15T12:58:36.468Z,6.87
2022-09-15T13:01:36.949Z,9.87
2022-09-15T13:04:42.469Z,3.87
2022-09-15T13:07:33.593Z,7.83
2022-09-15T13:10:27.059Z,5.47
2022-09-15T13:13:08.541Z,7.30
2022-09-15T13:15:42.088Z,8.33
2022-09-15T13:18:13.376Z,4.97
2022-09-15T13:20:50.112Z,4.97
2022-09-15T13:23:23.309Z,4.63
2022-09-15T13:25:54.021Z,7.17
2022-09-15T13:28:22.961Z,3.93
2022-09-15T13:31:05.392Z,4.70
2022-09-15T13:40:27.222Z,2.83
2022-09-15T13:43:09.800Z,5.37
2022-09-15T13:45:54.736Z,4.27
2022-09-15T13:48:49.695Z,4.17
2022-09-15T13:51:25.124Z,3.90
2022-09-15T13:53:56.824Z,3.97
2022-09-15T13:56:28.576Z,7.43
2022-09-15T13:59:08.972Z,5.80
2022-09-15T14:01:39.862Z,3.47
2022-09-15T14:04:13.253Z,6.30
2022-09-15T14:06:44.291Z,2.03
2022-09-15T14:09:15.810Z,4.43
2022-09-15T14:11:44.959Z,4.57
2022-09-15T14:14:34.390Z,5.03
2022-09-15T14:17:02.659Z,6.87
2022-09-15T14:19:35.263Z,4.87
2022-09-15T14:22:17.439Z,5.63
2022-09-15T14:24:46.090Z,6.10
2022-09-15T14:27:22.501Z,3.40
2022-09-15T14:29:55.239Z,3.87
2022-09-15T14:32:23.667Z,4.33
2022-09-15T14:34:54.225Z,5.17
2022-09-15T14:37:27.625Z,6.03
2022-09-15T14:39:57.270Z,10.47
2022-09-15T14:42:30.715Z,7.87
2022-09-15T14:48:03.375Z,5.67
2022-09-15T14:50:33.750Z,4.53
2022-09-15T14:53:05.468Z,4.57
2022-09-15T14:55:38.639Z,2.33
2022-09-15T14:58:13.825Z,6.17
2022-09-15T15:00:50.861Z,5.07
2022-09-15T15:03:29.105Z,5.63
2022-09-15T15:06:27.688Z,3.50
2022-09-15T15:08:53.667Z,5.80
2022-09-15T15:11:22.137Z,8.07
2022-09-15T15:13:53.194Z,2.43
2022-09-15T15:16:24.012Z,4.90
2022-09-15T15:18:53.243Z,6.20
2022-09-15T15:21:38.461Z,4.70
2022-09-15T15:24:16.403Z,7.40
2022-09-15T15:26:46.306Z,6.10
2022-09-15T15:29:39.603Z,6.50
2022-09-15T15:32:13.256Z,10.83
2022-09-15T15:34:48.479Z,8.17
2022-09-15T15:37:26.595Z,7.10
2022-09-15T15:39:56.024Z,8.30
2022-09-15T15:42:25.520Z,10.17
2022-09-15T15:45:02.214Z,5.93
2022-09-15T15:47:32.438Z,6.00
2022-09-15T15:50:14.412Z,10.20
2022-09-15T15:52:44.951Z,9.80
2022-09-15T15:55:17.734Z,3.73
2022-09-15T15:57:47.749Z,6.73
2022-09-15T16:00:22.094Z,8.57
2022-09-15T16:02:50.883Z,8.20
2022-09-15T16:05:22.107Z,5.80
2022-09-15T16:07:53.335Z,5.67
2022-09-15T16:10:23.683Z,6.50
2022-09-15T16:12:52.072Z,4.53
2022-09-15T16:15:22.008Z,7.10
2022-09-15T16:17:50.822Z,10.07
2022-09-15T16:20:19.731Z,8.43
2022-09-15T16:22:48.043Z,4.77
2022-09-15T16:25:19.664Z,7.70
2022-09-15T16:27:47.824Z,6.03
2022-09-15T16:30:16.101Z,6.70
2022-09-15T16:32:44.312Z,5.83
2022-09-15T16:35:25.472Z,8.40
2022-09-15T16:37:53.730Z,7.37
2022-09-15T16:40:23.357Z,4.50
2022-09-15T16:42:52.569Z,5.90
2022-09-15T16:45:29.814Z,8.67
2022-09-15T16:47:57.968Z,10.13
2022-09-15T16:50:26.451Z,6.60
2022-09-15T16:52:54.667Z,5.93
2022-09-15T16:55:37.505Z,6.80
2022-09-15T16:58:06.440Z,7.40
2022-09-15T17:00:36.942Z,5.03
2022-09-15T17:03:06.472Z,11.33
2022-09-15T17:05:38.640Z,8.37
2022-09-15T17:08:08.841Z,11.97
2022-09-15T17:10:40.149Z,9.60
2022-09-15T17:13:08.917Z,10.80
2022-09-15T17:15:38.823Z,7.63
2022-09-15T17:18:07.912Z,10.57
2022-09-15T17:20:39.386Z,11.07
2022-09-15T17:23:18.991Z,16.43
2022-09-15T17:25:52.666Z,19.80
2022-09-15T17:28:25.143Z,18.20
2022-09-15T17:31:00.202Z,35.17
2022-09-15T17:33:29.635Z,27.87
2022-09-15T17:35:57.886Z,20.17
2022-09-15T17:38:26.796Z,22.10
2022-09-15T17:40:57.136Z,18.10
2022-09-15T17:43:28.066Z,13.07
2022-09-15T17:45:57.106Z,12.27
2022-09-15T17:48:42.380Z,9.10
2022-09-15T17:51:15.357Z,7.00
2022-09-15T17:53:45.232Z,9.73
2022-09-15T17:56:14.943Z,9.83
2022-09-15T17:58:43.233Z,8.60
2022-09-15T18:01:14.396Z,8.70
2022-09-15T18:03:44.800Z,7.23
2022-09-15T18:06:13.551Z,8.77
2022-09-15T18:08:44.544Z,6.30
2022-09-15T18:11:16.072Z,9.00
2022-09-15T18:13:45.277Z,9.47
2022-09-15T18:16:17.845Z,11.13
2022-09-15T18:18:56.357Z,12.07
2022-09-15T18:21:28.557Z,8.83
2022-09-15T18:23:57.009Z,9.80
2022-09-15T18:26:27.045Z,10.13
2022-09-15T18:28:56.270Z,9.17
2022-09-15T18:31:24.501Z,9.47
2022-09-15T18:33:52.781Z,9.97
2022-09-15T18:36:21.199Z,7.07
2022-09-15T18:38:49.319Z,8.97
2022-09-15T18:41:17.451Z,10.43
2022-09-15T18:43:49.141Z,7.27
2022-09-15T18:46:18.727Z,7.77
2022-09-15T18:48:46.938Z,6.63
2022-09-15T18:51:23.992Z,5.93
2022-09-15T18:53:57.427Z,8.73
2022-09-15T18:56:25.710Z,8.63
2022-09-15T18:58:56.178Z,13.03
2022-09-15T19:01:24.727Z,8.60
2022-09-15T19:03:53.721Z,10.20
2022-09-15T19:06:21.999Z,10.83
2022-09-15T19:08:50.141Z,7.50
2022-09-15T19:11:18.333Z,9.83
2022-09-15T19:13:46.691Z,11.80
2022-09-15T19:16:20.143Z,10.37
2022-09-15T19:18:51.820Z,10.53
2022-09-15T19:21:23.936Z,8.00
2022-09-15T19:23:58.004Z,8.10
2022-09-15T19:26:29.142Z,10.83
2022-09-15T19:29:15.197Z,8.43
2022-09-15T19:31:50.642Z,5.20
2022-09-15T19:34:19.244Z,9.47
2022-09-15T19:36:47.724Z,7.67
2022-09-15T19:39:15.953Z,8.97
2022-09-15T19:41:47.201Z,11.90
2022-09-15T19:44:29.376Z,11.40
2022-09-15T19:47:00.270Z,8.90
2022-09-15T19:49:29.520Z,9.10
2022-09-15T19:51:58.025Z,8.37
2022-09-15T19:54:27.669Z,9.77
2022-09-15T19:56:56.549Z,7.77
2022-09-15T19:59:30.813Z,11.07
2022-09-15T20:02:02.322Z,13.27
2022-09-15T20:04:33.774Z,7.13
2022-09-15T20:07:02.071Z,9.63
2022-09-15T20:09:32.501Z,12.70
2022-09-15T20:12:03.593Z,6.37
2022-09-15T20:14:32.374Z,7.27
2022-09-15T20:17:02.272Z,6.27
2022-09-15T20:19:30.937Z,8.80
2022-09-15T20:21:59.187Z,8.03
2022-09-15T20:24:27.363Z,11.70
2022-09-15T20:26:55.584Z,9.10
2022-09-15T20:29:30.986Z,8.53
2022-09-15T20:31:59.186Z,8.33
2022-09-15T20:34:28.881Z,12.97
2022-09-15T20:36:57.085Z,10.80
2022-09-15T20:39:25.894Z,6.60
2022-09-15T20:41:54.462Z,11.50
2022-09-15T20:44:22.669Z,8.63
2022-09-15T20:46:51.101Z,4.77
2022-09-15T20:49:19.715Z,12.37
2022-09-15T20:51:51.611Z,9.97
2022-09-15T20:54:19.866Z,7.47
2022-09-15T20:56:48.156Z,10.53
2022-09-15T20:59:16.540Z,10.30
2022-09-15T21:01:44.789Z,6.67
2022-09-15T21:04:13.091Z,9.00
2022-09-15T21:06:41.299Z,12.07
2022-09-15T21:09:11.014Z,12.27
2022-09-15T21:11:39.856Z,9.97
2022-09-15T21:14:08.061Z,9.40
2022-09-15T21:16:36.334Z,11.83
2022-09-15T21:19:05.269Z,8.90
2022-09-15T21:21:34.118Z,10.73
2022-09-15T21:24:04.555Z,7.73
2022-09-15T21:26:35.588Z,6.33
2022-09-15T21:29:04.270Z,7.47
2022-09-15T21:31:34.000Z,11.60
2022-09-15T21:34:02.333Z,8.00
2022-09-15T21:36:32.054Z,8.07
2022-09-15T21:39:02.751Z,9.13
2022-09-15T21:41:31.624Z,6.63
2022-09-15T21:44:01.261Z,5.43
2022-09-15T21:46:31.917Z,9.50
2022-09-15T21:49:01.200Z,6.93
2022-09-15T21:51:31.270Z,5.90
2022-09-15T21:54:00.725Z,6.47
2022-09-15T21:56:31.357Z,7.73
2022-09-15T21:59:03.210Z,8.33
2022-09-15T22:01:41.717Z,6.17
2022-09-15T22:04:11.090Z,7.80
2022-09-15T22:06:41.955Z,7.97
2022-09-15T22:09:12.031Z,7.47
2022-09-15T22:11:40.989Z,6.27
2022-09-15T22:14:11.947Z,6.67
2022-09-15T22:16:41.659Z,9.80
2022-09-15T22:19:12.407Z,7.67
2022-09-15T22:21:42.019Z,6.63
2022-09-15T22:24:12.723Z,7.67
2022-09-15T22:26:42.211Z,10.33
2022-09-15T22:29:12.379Z,7.60
2022-09-15T22:31:42.133Z,12.30
2022-09-15T22:34:10.538Z,9.27
2022-09-15T22:36:38.798Z,9.10
2022-09-15T22:39:07.198Z,7.40
2022-09-15T22:41:37.659Z,8.77
2022-09-15T22:44:07.223Z,7.97
2022-09-15T22:46:36.885Z,8.77
2022-09-15T22:49:05.065Z,6.67
2022-09-15T22:51:33.240Z,8.50
2022-09-15T22:54:03.509Z,7.43
2022-09-15T22:56:31.835Z,7.50
2022-09-15T22:59:00.370Z,7.90
2022-09-15T23:01:30.689Z,10.37
2022-09-15T23:04:02.157Z,10.73
2022-09-15T23:06:32.661Z,11.77
2022-09-15T23:09:02.502Z,6.87
2022-09-15T23:11:32.347Z,9.87
2022-09-15T23:14:01.159Z,12.77
2022-09-15T23:16:30.913Z,13.00
2022-09-15T23:19:00.765Z,9.73
2022-09-15T23:21:29.121Z,9.03
2022-09-15T23:23:57.430Z,11.13
2022-09-15T23:26:26.753Z,9.73
2022-09-15T23:28:55.247Z,8.07
2022-09-15T23:31:23.802Z,12.13
2022-09-15T23:33:52.006Z,11.27
2022-09-15T23:36:21.949Z,10.37
2022-09-15T23:38:50.788Z,12.13
2022-09-15T23:41:19.875Z,10.73
2022-09-15T23:43:48.358Z,14.60
2022-09-15T23:46:16.623Z,11.43
2022-09-15T23:48:45.030Z,11.93
2022-09-15T23:51:13.429Z,8.70
2022-09-15T23:53:43.086Z,7.97
2022-09-15T23:56:11.308Z,13.03
2022-09-15T23:58:39.943Z,9.70
